createdAt,value
2018-04-11T00:00:32.010Z,91.60
2018-04-11T00:03:00.272Z,91.19
2018-04-11T00:05:28.551Z,91.24
2018-04-11T00:07:56.830Z,91.68
2018-04-11T00:10:25.079Z,91.54
2018-04-11T00:12:53.372Z,91.13
2018-04-11T00:15:21.624Z,91.35
2018-04-11T00:17:49.885Z,91.06
2018-04-11T00:20:18.912Z,91.08
2018-04-11T00:22:47.165Z,91.91
2018-04-11T00:25:16.212Z,91.63
2018-04-11T00:27:44.487Z,91.09
2018-04-11T00:30:12.763Z,91.54
2018-04-11T00:32:41.047Z,92.03
2018-04-11T00:35:09.314Z,92.52
2018-04-11T00:37:37.705Z,92.38
2018-04-11T00:40:05.991Z,92.32
2018-04-11T00:42:34.245Z,91.67
2018-04-11T00:45:02.533Z,91.75
2018-04-11T00:47:30.798Z,92.41
2018-04-11T00:49:59.045Z,92.29
2018-04-11T00:52:27.348Z,92.00
2018-04-11T00:54:55.637Z,92.65
2018-04-11T00:57:23.895Z,93.02
2018-04-11T00:59:52.159Z,92.90
2018-04-11T01:02:20.429Z,92.81
2018-04-11T01:04:48.705Z,93.13
2018-04-11T01:07:17.775Z,92.74
2018-04-11T01:09:46.052Z,92.10
2018-04-11T01:12:14.297Z,92.47
2018-04-11T01:14:42.597Z,92.39
2018-04-11T01:17:10.857Z,92.44
2018-04-11T01:19:39.111Z,92.44
2018-04-11T01:22:07.408Z,92.37
2018-04-11T01:24:35.685Z,91.81
2018-04-11T01:27:03.968Z,91.46
2018-04-11T01:29:32.232Z,91.54
2018-04-11T01:32:00.505Z,92.29
2018-04-11T01:34:28.810Z,92.30
2018-04-11T01:36:57.089Z,91.84
2018-04-11T01:39:25.348Z,91.90
2018-04-11T01:41:53.593Z,91.84
2018-04-11T01:44:21.883Z,90.83
2018-04-11T01:46:50.176Z,91.43
2018-04-11T01:49:18.456Z,91.61
2018-04-11T01:51:46.750Z,91.85
2018-04-11T01:54:14.997Z,91.83
2018-04-11T01:56:43.258Z,91.24
2018-04-11T01:59:11.533Z,91.61
2018-04-11T02:01:40.568Z,91.03
2018-04-11T02:04:08.837Z,91.13
2018-04-11T02:06:37.149Z,91.10
2018-04-11T02:09:05.413Z,91.04
2018-04-11T02:11:33.689Z,91.42
2018-04-11T02:14:01.967Z,91.46
2018-04-11T02:16:30.211Z,91.69
2018-04-11T02:18:58.482Z,92.09
2018-04-11T02:21:26.780Z,91.99
2018-04-11T02:23:55.023Z,91.28
2018-04-11T02:26:24.040Z,92.00
2018-04-11T02:28:52.338Z,92.28
2018-04-11T02:31:21.396Z,91.50
2018-04-11T02:33:50.412Z,91.22
2018-04-11T02:36:18.718Z,91.76
2018-04-11T02:38:46.965Z,92.05
2018-04-11T02:41:15.232Z,92.38
2018-04-11T02:43:43.524Z,92.06
2018-04-11T02:46:11.779Z,91.58
2018-04-11T02:48:40.061Z,91.15
2018-04-11T02:51:09.138Z,91.65
2018-04-11T02:53:38.211Z,92.12
2018-04-11T02:56:06.496Z,91.77
2018-04-11T02:58:34.781Z,90.79
2018-04-11T03:01:03.049Z,91.32
2018-04-11T03:03:31.322Z,91.88
2018-04-11T03:05:59.583Z,92.06
2018-04-11T03:08:27.832Z,92.12
2018-04-11T03:10:56.133Z,92.30
2018-04-11T03:13:24.407Z,92.35
2018-04-11T03:15:52.661Z,92.37
2018-04-11T03:18:20.964Z,92.17
2018-04-11T03:20:49.238Z,91.85
2018-04-11T03:23:17.514Z,91.11
2018-04-11T03:25:45.790Z,91.13
2018-04-11T03:28:14.061Z,90.66
2018-04-11T03:30:42.323Z,90.67
2018-04-11T03:33:10.607Z,90.63
2018-04-11T03:35:38.872Z,91.33
2018-04-11T03:38:07.170Z,90.94
2018-04-11T03:40:35.441Z,90.16
2018-04-11T03:43:03.746Z,89.67
2018-04-11T03:45:32.047Z,89.52
2018-04-11T03:48:00.302Z,90.38
2018-04-11T03:50:28.578Z,89.86
2018-04-11T03:52:56.875Z,89.42
2018-04-11T03:55:25.623Z,90.05
2018-04-11T03:57:53.872Z,89.79
2018-04-11T04:00:22.159Z,90.02
2018-04-11T04:02:50.429Z,89.49
2018-04-11T04:05:18.708Z,89.16
2018-04-11T04:07:47.020Z,88.66
2018-04-11T04:10:15.263Z,88.35
2018-04-11T04:12:43.530Z,88.24
2018-04-11T04:15:29.339Z,88.16
2018-04-11T04:18:15.316Z,88.31
2018-04-11T04:20:43.596Z,88.97
2018-04-11T04:23:12.647Z,89.29
2018-04-11T04:25:40.957Z,89.97
2018-04-11T04:28:09.205Z,90.30
2018-04-11T04:30:37.497Z,89.46
2018-04-11T04:33:05.789Z,89.30
2018-04-11T04:35:34.067Z,90.08
2018-04-11T04:38:02.317Z,89.35
2018-04-11T04:40:30.649Z,88.79
2018-04-11T04:42:58.931Z,88.48
2018-04-11T04:45:27.202Z,88.44
2018-04-11T04:47:55.495Z,89.27
2018-04-11T04:50:23.756Z,89.17
2018-04-11T04:52:52.017Z,89.95
2018-04-11T04:55:20.335Z,89.95
2018-04-11T04:57:48.619Z,89.42
2018-04-11T05:00:16.899Z,88.97
2018-04-11T05:02:45.184Z,89.18
2018-04-11T05:05:13.464Z,90.58
2018-04-11T05:07:41.766Z,91.50
2018-04-11T05:10:10.053Z,91.77
2018-04-11T05:12:38.330Z,91.44
2018-04-11T05:15:06.591Z,91.26
2018-04-11T05:17:34.870Z,91.55
2018-04-11T05:20:03.148Z,91.77
2018-04-11T05:22:31.410Z,92.16
2018-04-11T05:24:59.720Z,92.20
2018-04-11T05:27:27.969Z,92.52
2018-04-11T05:29:56.249Z,92.69
2018-04-11T05:32:24.575Z,92.11
2018-04-11T05:34:52.865Z,91.36
2018-04-11T05:37:21.120Z,90.61
2018-04-11T05:39:49.414Z,89.86
2018-04-11T05:42:17.689Z,89.68
2018-04-11T05:44:46.741Z,89.34
2018-04-11T05:47:15.023Z,89.10
2018-04-11T05:49:43.293Z,88.96
2018-04-11T05:52:11.560Z,88.97
2018-04-11T05:54:39.844Z,89.00
2018-04-11T05:57:08.108Z,88.60
2018-04-11T05:59:36.367Z,88.60
2018-04-11T06:02:04.678Z,88.52
2018-04-11T06:04:32.971Z,88.48
2018-04-11T06:07:01.233Z,88.65
2018-04-11T06:09:29.505Z,88.56
2018-04-11T06:11:57.759Z,88.30
2018-04-11T06:14:26.016Z,88.04
2018-04-11T06:16:55.082Z,88.17
2018-04-11T06:19:23.317Z,88.16
2018-04-11T06:21:51.561Z,88.14
2018-04-11T06:24:20.621Z,88.02
2018-04-11T06:26:48.893Z,88.16
2018-04-11T06:29:17.914Z,88.46
2018-04-11T06:31:46.223Z,88.58
2018-04-11T06:34:14.488Z,88.59
2018-04-11T06:36:42.752Z,88.29
2018-04-11T06:39:11.053Z,88.31
2018-04-11T06:41:39.297Z,88.52
2018-04-11T06:44:07.563Z,88.48
2018-04-11T06:46:35.867Z,88.09
2018-04-11T06:49:04.914Z,88.26
2018-04-11T06:51:33.195Z,88.37
2018-04-11T06:54:01.479Z,88.06
2018-04-11T06:56:29.738Z,87.97
2018-04-11T06:58:58.019Z,87.72
2018-04-11T07:01:26.302Z,87.49
2018-04-11T07:03:54.598Z,87.39
2018-04-11T07:06:22.849Z,87.29
2018-04-11T07:08:51.140Z,87.62
2018-04-11T07:11:19.385Z,87.84
2018-04-11T07:13:47.659Z,87.98
2018-04-11T07:16:15.948Z,88.01
2018-04-11T07:18:44.210Z,87.84
2018-04-11T07:21:12.488Z,87.69
2018-04-11T07:23:40.752Z,87.04
2018-04-11T07:26:09.008Z,87.43
2018-04-11T07:28:37.287Z,87.43
2018-04-11T07:31:05.582Z,87.27
2018-04-11T07:33:33.859Z,87.43
2018-04-11T07:36:02.889Z,86.99
2018-04-11T07:38:31.179Z,86.70
2018-04-11T07:40:59.466Z,86.27
2018-04-11T07:43:27.735Z,85.89
2018-04-11T07:45:56.022Z,85.16
2018-04-11T07:48:24.299Z,84.39
2018-04-11T07:50:52.564Z,84.17
2018-04-11T07:53:20.847Z,83.53
2018-04-11T07:55:50.029Z,82.05
2018-04-11T07:58:18.329Z,81.79
2018-04-11T08:00:46.590Z,81.94
2018-04-11T08:03:14.899Z,80.64
2018-04-11T08:05:43.159Z,78.87
2018-04-11T08:08:11.416Z,77.58
2018-04-11T08:10:39.700Z,77.28
2018-04-11T08:13:07.963Z,76.00
2018-04-11T08:15:36.258Z,72.99
2018-04-11T08:18:04.564Z,69.76
2018-04-11T08:20:32.804Z,68.58
2018-04-11T08:23:01.101Z,68.93
2018-04-11T08:25:29.411Z,68.43
2018-04-11T08:27:57.686Z,67.92
2018-04-11T08:30:25.999Z,67.51
2018-04-11T08:32:54.273Z,66.95
2018-04-11T08:35:22.564Z,64.81
2018-04-11T08:37:50.842Z,65.10
2018-04-11T08:40:19.136Z,65.02
2018-04-11T08:42:47.417Z,63.32
2018-04-11T08:45:15.690Z,64.23
2018-04-11T08:47:44.002Z,64.09
2018-04-11T08:50:12.267Z,64.32
2018-04-11T08:52:40.590Z,66.44
2018-04-11T08:55:08.895Z,66.80
2018-04-11T08:57:37.177Z,64.52
2018-04-11T09:00:05.469Z,64.68
2018-04-11T09:02:33.745Z,64.38
2018-04-11T09:05:01.998Z,64.82
2018-04-11T09:07:30.415Z,63.61
2018-04-11T09:09:58.691Z,63.09
2018-04-11T09:12:26.996Z,63.93
2018-04-11T09:14:55.266Z,62.41
2018-04-11T09:17:23.545Z,62.02
2018-04-11T09:19:51.833Z,62.62
2018-04-11T09:22:20.092Z,63.50
2018-04-11T09:24:48.388Z,63.14
2018-04-11T09:27:16.660Z,62.32
2018-04-11T09:29:44.920Z,64.25
2018-04-11T09:32:13.206Z,65.11
2018-04-11T09:34:41.480Z,65.56
2018-04-11T09:37:09.768Z,64.86
2018-04-11T09:39:38.066Z,64.16
2018-04-11T09:42:06.335Z,63.86
2018-04-11T09:44:34.625Z,63.42
2018-04-11T09:47:04.189Z,63.20
2018-04-11T09:49:32.490Z,62.64
2018-04-11T09:52:02.257Z,61.18
2018-04-11T09:54:30.543Z,60.84
2018-04-11T09:56:58.853Z,59.45
2018-04-11T09:59:27.106Z,59.24
2018-04-11T10:01:55.395Z,58.44
2018-04-11T10:04:23.659Z,58.88
2018-04-11T10:06:51.977Z,57.65
2018-04-11T10:09:20.238Z,57.25
2018-04-11T10:11:48.551Z,56.99
2018-04-11T10:14:16.779Z,57.93
2018-04-11T10:16:45.079Z,57.66
2018-04-11T10:19:13.360Z,57.89
2018-04-11T10:21:41.665Z,57.63
2018-04-11T10:24:10.073Z,57.51
2018-04-11T10:26:38.339Z,58.06
2018-04-11T10:29:06.626Z,57.49
2018-04-11T10:31:34.896Z,57.69
2018-04-11T10:34:03.179Z,57.13
2018-04-11T10:36:31.462Z,55.98
2018-04-11T10:38:59.746Z,54.28
2018-04-11T10:41:28.100Z,54.78
2018-04-11T10:43:56.363Z,54.76
2018-04-11T10:46:25.422Z,53.87
2018-04-11T10:48:54.624Z,53.74
2018-04-11T10:51:22.906Z,53.53
2018-04-11T10:53:51.227Z,53.45
2018-04-11T10:56:19.504Z,54.72
2018-04-11T10:58:48.532Z,53.98
2018-04-11T11:01:16.887Z,53.99
2018-04-11T11:03:45.151Z,53.58
2018-04-11T11:06:13.433Z,52.70
2018-04-11T11:08:41.735Z,51.66
2018-04-11T11:11:10.938Z,52.05
2018-04-11T11:13:39.197Z,51.97
2018-04-11T11:16:07.497Z,51.94
2018-04-11T11:18:35.777Z,52.44
2018-04-11T11:21:04.046Z,50.58
2018-04-11T11:23:32.335Z,50.17
2018-04-11T11:26:01.404Z,51.01
2018-04-11T11:28:29.670Z,51.11
2018-04-11T11:30:58.715Z,50.92
2018-04-11T11:33:26.974Z,49.70
2018-04-11T11:35:55.283Z,49.80
2018-04-11T11:38:23.551Z,50.43
2018-04-11T11:40:51.845Z,49.91
2018-04-11T11:43:20.128Z,49.25
2018-04-11T11:45:48.386Z,48.77
2018-04-11T11:48:16.664Z,49.59
2018-04-11T11:50:44.943Z,48.71
2018-04-11T11:53:13.239Z,49.73
2018-04-11T11:55:41.530Z,48.67
2018-04-11T11:58:10.615Z,48.79
2018-04-11T12:00:38.896Z,49.61
2018-04-11T12:03:07.182Z,50.49
2018-04-11T12:05:35.438Z,50.78
2018-04-11T12:08:03.723Z,48.60
2018-04-11T12:10:31.986Z,48.55
2018-04-11T12:13:00.261Z,49.27
2018-04-11T12:15:28.574Z,48.70
2018-04-11T12:17:57.631Z,48.42
2018-04-11T12:20:25.956Z,48.04
2018-04-11T12:22:54.201Z,47.85
2018-04-11T12:25:22.482Z,47.85
2018-04-11T12:27:50.784Z,48.49
2018-04-11T12:30:19.820Z,48.24
2018-04-11T12:32:48.091Z,48.47
2018-04-11T12:35:16.368Z,47.89
2018-04-11T12:37:44.662Z,48.93
2018-04-11T12:40:12.935Z,47.07
2018-04-11T12:42:41.227Z,47.55
2018-04-11T12:45:09.490Z,48.14
2018-04-11T12:47:37.763Z,47.81
2018-04-11T12:50:06.051Z,47.38
2018-04-11T12:52:34.321Z,47.28
2018-04-11T12:55:02.585Z,47.66
2018-04-11T12:57:30.885Z,46.97
2018-04-11T12:59:59.148Z,46.99
2018-04-11T13:02:28.202Z,47.01
2018-04-11T13:04:56.490Z,45.90
2018-04-11T13:07:25.526Z,46.24
2018-04-11T13:09:53.804Z,45.60
2018-04-11T13:12:22.100Z,45.34
2018-04-11T13:14:50.382Z,45.36
2018-04-11T13:17:18.633Z,45.38
2018-04-11T13:19:46.945Z,44.98
2018-04-11T13:22:15.206Z,44.30
2018-04-11T13:24:43.453Z,44.72
2018-04-11T13:27:11.741Z,44.44
2018-04-11T13:29:40.041Z,44.30
2018-04-11T13:32:08.349Z,44.28
2018-04-11T13:34:36.659Z,43.40
2018-04-11T13:37:04.946Z,43.09
2018-04-11T13:39:33.235Z,42.91
2018-04-11T13:42:01.492Z,43.25
2018-04-11T13:44:29.782Z,42.36
2018-04-11T13:46:58.114Z,41.83
2018-04-11T13:49:26.386Z,41.67
2018-04-11T13:51:54.670Z,41.92
2018-04-11T13:54:22.974Z,42.67
2018-04-11T13:56:51.253Z,42.22
2018-04-11T13:59:20.307Z,43.48
2018-04-11T14:01:48.605Z,42.99
2018-04-11T14:04:16.873Z,42.86
2018-04-11T14:06:45.162Z,42.40
2018-04-11T14:09:13.453Z,42.42
2018-04-11T14:11:42.475Z,43.23
2018-04-11T14:14:10.767Z,42.95
2018-04-11T14:16:39.815Z,43.48
2018-04-11T14:19:08.860Z,42.66
2018-04-11T14:21:37.141Z,43.30
2018-04-11T14:24:05.406Z,42.29
2018-04-11T14:26:33.678Z,40.37
2018-04-11T14:29:01.944Z,39.95
2018-04-11T14:31:30.236Z,38.83
2018-04-11T14:33:58.511Z,38.58
2018-04-11T14:36:26.806Z,38.19
2018-04-11T14:38:55.100Z,37.96
2018-04-11T14:41:23.365Z,37.59
2018-04-11T14:43:51.630Z,37.53
2018-04-11T14:46:20.356Z,37.95
2018-04-11T14:48:48.625Z,38.78
2018-04-11T14:51:16.938Z,39.42
2018-04-11T14:53:46.697Z,38.18
2018-04-11T14:56:15.001Z,37.40
2018-04-11T14:58:43.301Z,37.40
2018-04-11T15:01:11.621Z,37.46
2018-04-11T15:03:39.898Z,36.70
2018-04-11T15:06:08.166Z,35.78
2018-04-11T15:08:36.444Z,35.35
2018-04-11T15:11:05.514Z,35.70
2018-04-11T15:13:33.801Z,34.84
2018-04-11T15:16:02.872Z,35.44
2018-04-11T15:18:31.247Z,35.40
2018-04-11T15:20:59.561Z,36.39
2018-04-11T15:23:30.450Z,37.57
2018-04-11T15:25:58.736Z,37.83
2018-04-11T15:28:27.032Z,37.72
2018-04-11T15:30:55.295Z,37.49
2018-04-11T15:33:23.612Z,37.28
2018-04-11T15:35:52.645Z,37.17
2018-04-11T15:38:20.905Z,37.46
2018-04-11T15:40:49.192Z,37.62
2018-04-11T15:43:17.486Z,36.17
2018-04-11T15:45:45.789Z,36.20
2018-04-11T15:48:14.094Z,35.47
2018-04-11T15:50:42.430Z,35.12
2018-04-11T15:53:10.669Z,34.90
2018-04-11T15:55:38.944Z,34.64
2018-04-11T15:58:07.685Z,35.12
2018-04-11T16:00:35.934Z,34.92
2018-04-11T16:03:04.212Z,34.88
2018-04-11T16:05:32.508Z,34.47
2018-04-11T16:08:00.777Z,33.87
2018-04-11T16:10:29.547Z,35.06
2018-04-11T16:12:58.771Z,35.41
2018-04-11T16:15:27.037Z,36.41
2018-04-11T16:17:55.330Z,37.31
2018-04-11T16:20:23.607Z,37.74
2018-04-11T16:22:51.894Z,37.98
2018-04-11T16:25:20.223Z,37.90
2018-04-11T16:27:48.516Z,38.49
2018-04-11T16:30:16.803Z,39.78
2018-04-11T16:32:45.076Z,39.61
2018-04-11T16:35:13.342Z,40.13
2018-04-11T16:37:41.634Z,40.69
2018-04-11T16:40:09.902Z,40.66
2018-04-11T16:42:38.193Z,41.08
2018-04-11T16:45:06.498Z,41.62
2018-04-11T16:47:34.764Z,42.22
2018-04-11T16:50:03.056Z,42.44
2018-04-11T16:52:31.312Z,42.32
2018-04-11T16:54:59.592Z,42.77
2018-04-11T16:57:27.876Z,43.25
2018-04-11T16:59:56.187Z,43.56
2018-04-11T17:02:24.494Z,42.84
2018-04-11T17:04:53.318Z,43.26
2018-04-11T17:07:21.625Z,44.35
2018-04-11T17:09:49.908Z,45.21
2018-04-11T17:12:18.218Z,44.66
2018-04-11T17:14:46.544Z,44.84
2018-04-11T17:17:14.811Z,45.69
2018-04-11T17:19:43.134Z,44.53
2018-04-11T17:22:29.089Z,45.02
2018-04-11T17:25:14.858Z,46.34
2018-04-11T17:28:00.809Z,47.13
2018-04-11T17:30:46.706Z,46.41
2018-04-11T17:33:14.978Z,47.49
2018-04-11T17:35:44.032Z,47.96
2018-04-11T17:38:12.338Z,48.38
2018-04-11T17:40:41.379Z,47.55
2018-04-11T17:43:09.665Z,47.59
2018-04-11T17:45:37.938Z,47.41
2018-04-11T17:48:08.275Z,48.11
2018-04-11T17:50:36.601Z,48.61
2018-04-11T17:53:04.906Z,49.99
2018-04-11T17:55:33.226Z,50.07
2018-04-11T17:58:01.511Z,49.33
2018-04-11T18:00:29.828Z,50.46
2018-04-11T18:02:58.125Z,50.50
2018-04-11T18:05:27.176Z,50.89
2018-04-11T18:07:55.937Z,51.48
2018-04-11T18:10:24.216Z,50.75
2018-04-11T18:12:53.404Z,51.24
2018-04-11T18:15:21.703Z,51.82
2018-04-11T18:17:49.977Z,52.09
2018-04-11T18:20:18.784Z,52.55
2018-04-11T18:22:47.062Z,53.33
2018-04-11T18:25:15.346Z,54.54
2018-04-11T18:27:43.627Z,55.48
2018-04-11T18:30:12.685Z,55.49
2018-04-11T18:32:40.954Z,55.70
2018-04-11T18:35:09.257Z,56.50
2018-04-11T18:37:37.543Z,57.18
2018-04-11T18:40:05.815Z,56.88
2018-04-11T18:42:34.195Z,57.76
2018-04-11T18:45:02.445Z,58.44
2018-04-11T18:47:30.746Z,58.62
2018-04-11T18:49:59.011Z,59.53
2018-04-11T18:52:27.275Z,60.07
2018-04-11T18:54:56.624Z,60.51
2018-04-11T18:57:24.941Z,60.66
2018-04-11T18:59:53.213Z,61.47
2018-04-11T19:02:25.263Z,61.06
2018-04-11T19:04:53.523Z,61.73
2018-04-11T19:07:26.875Z,62.08
2018-04-11T19:09:55.111Z,62.88
2018-04-11T19:12:23.400Z,63.04
2018-04-11T19:14:51.710Z,63.54
2018-04-11T19:17:19.986Z,62.75
2018-04-11T19:19:48.261Z,63.33
2018-04-11T19:22:16.590Z,63.59
2018-04-11T19:24:45.650Z,63.56
2018-04-11T19:27:13.929Z,64.51
2018-04-11T19:29:42.238Z,64.37
2018-04-11T19:32:12.185Z,63.83
2018-04-11T19:34:40.623Z,65.06
2018-04-11T19:37:10.575Z,65.46
2018-04-11T19:39:39.624Z,64.60
2018-04-11T19:42:07.945Z,65.05
2018-04-11T19:44:36.999Z,65.07
2018-04-11T19:47:05.274Z,65.86
2018-04-11T19:49:33.550Z,65.93
2018-04-11T19:52:01.825Z,66.92
2018-04-11T19:54:30.171Z,67.07
2018-04-11T19:56:58.434Z,66.54
2018-04-11T19:59:26.714Z,66.93
2018-04-11T20:01:54.990Z,67.15
2018-04-11T20:04:23.288Z,67.33
2018-04-11T20:06:51.562Z,66.99
2018-04-11T20:09:19.855Z,68.49
2018-04-11T20:11:48.136Z,68.51
2018-04-11T20:14:16.425Z,68.04
2018-04-11T20:16:44.738Z,68.49
2018-04-11T20:19:13.041Z,68.61
2018-04-11T20:21:41.327Z,69.38
2018-04-11T20:24:09.604Z,69.31
2018-04-11T20:26:37.896Z,69.02
2018-04-11T20:29:06.898Z,68.50
2018-04-11T20:31:35.172Z,69.68
2018-04-11T20:34:03.659Z,70.74
2018-04-11T20:36:32.041Z,70.11
2018-04-11T20:39:00.343Z,70.59
2018-04-11T20:41:28.701Z,71.23
2018-04-11T20:43:57.093Z,71.88
2018-04-11T20:46:25.379Z,71.64
2018-04-11T20:48:53.660Z,71.42
2018-04-11T20:51:21.936Z,71.85
2018-04-11T20:53:50.237Z,72.09
2018-04-11T20:56:18.522Z,72.45
2018-04-11T20:58:46.809Z,72.51
2018-04-11T21:01:16.022Z,72.79
2018-04-11T21:03:44.732Z,73.90
2018-04-11T21:06:13.016Z,72.70
2018-04-11T21:08:41.748Z,73.40
2018-04-11T21:11:10.094Z,74.28
2018-04-11T21:13:38.338Z,74.86
2018-04-11T21:16:06.627Z,74.17
2018-04-11T21:18:34.920Z,74.58
2018-04-11T21:21:03.195Z,74.35
2018-04-11T21:23:31.592Z,75.42
2018-04-11T21:25:59.867Z,75.37
2018-04-11T21:28:28.135Z,75.33
2018-04-11T21:30:56.430Z,75.47
2018-04-11T21:33:24.706Z,75.39
2018-04-11T21:35:52.977Z,74.98
2018-04-11T21:38:21.287Z,74.71
2018-04-11T21:40:49.546Z,75.18
2018-04-11T21:43:17.884Z,75.88
2018-04-11T21:45:46.176Z,75.74
2018-04-11T21:48:14.446Z,76.29
2018-04-11T21:50:42.820Z,77.09
2018-04-11T21:53:11.114Z,77.51
2018-04-11T21:55:39.367Z,78.26
2018-04-11T21:58:07.625Z,78.29
2018-04-11T22:00:35.940Z,77.99
2018-04-11T22:03:04.308Z,78.82
2018-04-11T22:05:32.581Z,78.61
2018-04-11T22:08:00.838Z,78.99
2018-04-11T22:10:29.876Z,78.86
2018-04-11T22:12:58.143Z,78.66
2018-04-11T22:15:27.479Z,78.87
2018-04-11T22:17:55.781Z,79.54
2018-04-11T22:20:24.048Z,80.01
2018-04-11T22:22:52.320Z,80.11
2018-04-11T22:25:20.618Z,80.86
2018-04-11T22:27:49.657Z,79.79
2018-04-11T22:30:17.954Z,80.69
2018-04-11T22:32:46.223Z,81.40
2018-04-11T22:35:14.479Z,81.72
2018-04-11T22:37:42.779Z,81.70
2018-04-11T22:40:11.066Z,81.18
2018-04-11T22:42:39.377Z,81.07
2018-04-11T22:45:08.436Z,80.97
2018-04-11T22:47:36.681Z,81.24
2018-04-11T22:50:04.979Z,80.75
2018-04-11T22:52:33.246Z,80.86
2018-04-11T22:55:01.558Z,81.21
2018-04-11T22:57:29.826Z,82.04
2018-04-11T22:59:59.097Z,82.01
2018-04-11T23:02:27.385Z,82.68
2018-04-11T23:04:55.687Z,81.47
2018-04-11T23:07:23.999Z,81.39
2018-04-11T23:09:53.148Z,81.79
2018-04-11T23:12:21.414Z,81.64
2018-04-11T23:14:49.704Z,82.25
2018-04-11T23:17:17.969Z,82.11
2018-04-11T23:19:46.998Z,82.99
2018-04-11T23:22:17.009Z,83.26
2018-04-11T23:24:45.251Z,84.10
2018-04-11T23:27:13.543Z,83.26
2018-04-11T23:29:41.858Z,83.62
2018-04-11T23:32:10.113Z,82.86
2018-04-11T23:34:38.403Z,83.31
2018-04-11T23:37:06.663Z,83.30
2018-04-11T23:39:35.116Z,83.48
2018-04-11T23:42:03.406Z,82.88
2018-04-11T23:44:31.671Z,82.33
2018-04-11T23:46:59.961Z,82.57
2018-04-11T23:49:28.209Z,83.82
2018-04-11T23:51:56.484Z,84.07
2018-04-11T23:54:25.524Z,83.77
2018-04-11T23:56:53.774Z,84.04
2018-04-11T23:59:22.060Z,83.84
